Time;durP1;ratioP1;P1;durP2;ratioP2;P2;SDS_P1;SDS_P2;PMS_P1;PMS_P2;Temp;Humidity;BMP_temperature;BMP_pressure;BME280_temperature;BME280_humidity;BME280_pressure;Samples;Min_cycle;Max_cycle;Signal;HPM_P1;HPM_P2
2023/09/21 00:01:03;;;;;;;33.42;31.38;;;;;;;14.44;100.00;101222.19;4990435;28;20499;-75
2023/09/21 00:03:30;;;;;;;29.25;27.25;;;;;;;14.51;100.00;101217.63;4975166;28;20046;-75
2023/09/21 00:05:58;;;;;;;35.28;32.97;;;;;;;14.29;100.00;101227.06;4985770;28;20054;-74
2023/09/21 00:08:25;;;;;;;34.67;32.47;;;;;;;14.18;100.00;101217.88;4988836;28;20089;-74
2023/09/21 00:10:52;;;;;;;33.92;31.92;;;;;;;14.62;100.00;101224.13;4983418;28;20082;-75
2023/09/21 00:13:27;;;;;;;33.97;31.90;;;;;;;14.23;100.00;101219.91;4978583;28;20039;-74
2023/09/21 00:15:55;;;;;;;32.03;30.02;;;;;;;14.26;100.00;101219.47;4985923;28;20046;-74
2023/09/21 00:18:26;;;;;;;37.08;34.70;;;;;;;14.59;100.00;101219.22;4979419;28;20113;-75
2023/09/21 00:20:53;;;;;;;37.80;35.50;;;;;;;14.75;100.00;101215.16;4989275;28;20047;-75
2023/09/21 00:23:23;;;;;;;32.00;29.92;;;;;;;14.57;100.00;101214.06;4986574;28;20043;-75
2023/09/21 00:25:51;;;;;;;32.83;30.83;;;;;;;14.42;100.00;101217.06;4975138;28;20130;-75
2023/09/21 00:28:21;;;;;;;38.72;36.42;;;;;;;14.59;100.00;101214.69;4981734;28;20046;-75
2023/09/21 00:30:49;;;;;;;38.30;35.80;;;;;;;14.56;100.00;101219.66;4972677;28;20061;-75
2023/09/21 00:33:17;;;;;;;42.42;39.83;;;;;;;14.50;100.00;101213.31;4971783;28;20151;-75
2023/09/21 00:35:46;;;;;;;40.53;38.10;;;;;;;14.33;100.00;101218.38;4987934;28;20055;-74
2023/09/21 00:38:14;;;;;;;41.78;39.17;;;;;;;14.34;100.00;101225.38;4989286;28;20053;-75
2023/09/21 00:40:42;;;;;;;37.33;35.13;;;;;;;14.44;100.00;101219.53;4990689;28;20086;-75
2023/09/21 00:43:10;;;;;;;33.90;31.88;;;;;;;14.40;100.00;101221.81;4989952;28;20047;-74
2023/09/21 00:45:37;;;;;;;35.63;33.53;;;;;;;14.43;100.00;101215.19;4982655;28;20129;-75
2023/09/21 00:48:09;;;;;;;34.95;32.85;;;;;;;14.16;100.00;101223.44;4986700;28;20056;-75
2023/09/21 00:50:36;;;;;;;31.83;29.73;;;;;;;13.99;100.00;101219.66;4986239;28;20054;-75
2023/09/21 00:53:07;;;;;;;35.88;33.50;;;;;;;13.69;100.00;101216.78;4983630;28;20638;-75
2023/09/21 00:55:39;;;;;;;32.72;30.63;;;;;;;14.25;100.00;101229.34;4981961;28;20050;-75
2023/09/21 00:58:08;;;;;;;32.15;30.05;;;;;;;13.91;100.00;101218.06;4971902;28;20047;-75
2023/09/21 01:00:42;;;;;;;40.47;38.08;;;;;;;14.14;100.00;101222.03;4980548;28;20413;-75
2023/09/21 01:03:11;;;;;;;30.05;27.75;;;;;;;14.02;100.00;101221.09;4971965;28;20042;-74
2023/09/21 01:05:40;;;;;;;28.23;26.42;;;;;;;14.17;100.00;101217.06;4980464;28;20050;-75
2023/09/21 01:08:21;;;;;;;41.50;39.10;;;;;;;14.24;100.00;101216.19;4976638;28;20113;-75
2023/09/21 01:10:50;;;;;;;33.20;31.20;;;;;;;14.25;100.00;101213.31;4984950;28;20431;-75
2023/09/21 01:13:18;;;;;;;37.88;35.70;;;;;;;14.32;100.00;101206.06;4994545;28;20189;-74
2023/09/21 01:15:46;;;;;;;41.38;39.08;;;;;;;13.93;100.00;101196.50;4987349;28;20061;-75
2023/09/21 01:18:16;;;;;;;36.60;34.47;;;;;;;13.91;100.00;101201.22;4991174;28;20126;-75
2023/09/21 01:20:44;;;;;;;36.88;34.58;;;;;;;13.49;100.00;101203.53;4980377;28;20509;-74
2023/09/21 01:23:18;;;;;;;54.05;50.90;;;;;;;13.72;100.00;101200.31;4989165;28;20500;-75
2023/09/21 01:25:49;;;;;;;32.33;30.33;;;;;;;14.03;100.00;101199.50;4989230;28;20058;-75
2023/09/21 01:28:18;;;;;;;36.13;34.03;;;;;;;14.19;100.00;101207.00;4989426;28;20500;-75
2023/09/21 01:30:48;;;;;;;37.45;35.25;;;;;;;14.26;100.00;101195.44;4975962;28;20082;-75
2023/09/21 01:33:17;;;;;;;39.50;37.30;;;;;;;14.11;100.00;101198.41;4972098;28;20081;-75
2023/09/21 01:35:45;;;;;;;37.15;35.05;;;;;;;14.13;100.00;101193.66;4988112;28;20507;-75
2023/09/21 01:38:13;;;;;;;34.58;32.47;;;;;;;14.05;100.00;101186.75;4982393;28;20054;-75
2023/09/21 01:40:41;;;;;;;34.80;32.70;;;;;;;14.08;100.00;101193.50;4990196;28;20057;-76
2023/09/21 01:43:12;;;;;;;38.20;35.90;;;;;;;13.97;100.00;101195.84;4986345;28;20046;-75
2023/09/21 01:45:40;;;;;;;35.65;33.35;;;;;;;13.98;100.00;101188.66;4985169;28;20444;-71
2023/09/21 01:48:09;;;;;;;33.95;31.85;;;;;;;13.96;100.00;101188.88;4979725;28;20120;-75
2023/09/21 01:50:45;;;;;;;41.40;38.78;;;;;;;13.22;100.00;101186.78;4979212;28;20057;-71
2023/09/21 01:53:18;;;;;;;38.80;36.40;;;;;;;13.80;100.00;101185.88;4974944;28;20058;-74
2023/09/21 01:55:47;;;;;;;56.95;53.95;;;;;;;13.98;100.00;101184.13;4976996;28;20118;-71
2023/09/21 01:58:17;;;;;;;51.55;48.88;;;;;;;14.05;100.00;101188.59;4988894;28;20051;-71
2023/09/21 02:00:46;;;;;;;44.80;42.40;;;;;;;13.84;100.00;101189.78;4978422;28;20054;-71
2023/09/21 02:03:17;;;;;;;48.08;45.47;;;;;;;13.98;100.00;101181.47;4982989;28;20057;-71
2023/09/21 02:05:46;;;;;;;43.92;39.72;;;;;;;13.97;100.00;101177.13;4984474;28;20086;-71
2023/09/21 02:08:14;;;;;;;44.40;41.60;;;;;;;13.87;100.00;101176.81;4986250;28;20507;-71
2023/09/21 02:10:41;;;;;;;46.30;43.47;;;;;;;13.58;100.00;101178.22;4990216;28;20601;-71
2023/09/21 02:13:08;;;;;;;44.42;41.72;;;;;;;13.69;100.00;101180.22;4987406;28;20053;-72
2023/09/21 02:15:38;;;;;;;48.72;45.70;;;;;;;13.69;100.00;101177.53;4971265;28;20077;-72
2023/09/21 02:18:06;;;;;;;52.85;49.90;;;;;;;13.89;100.00;101185.44;4989456;28;20054;-71
2023/09/21 02:20:35;;;;;;;44.47;41.88;;;;;;;13.96;100.00;101185.38;4978198;28;20529;-71
2023/09/21 02:23:03;;;;;;;42.35;39.85;;;;;;;13.76;100.00;101180.16;4984479;28;20057;-71
2023/09/21 02:25:32;;;;;;;40.60;38.20;;;;;;;13.70;100.00;101183.69;4981529;28;20061;-71
2023/09/21 02:28:00;;;;;;;44.53;42.08;;;;;;;13.77;100.00;101186.31;4982072;28;20072;-71
2023/09/21 02:30:26;;;;;;;38.58;36.30;;;;;;;13.72;100.00;101185.13;4980993;28;20486;-71
2023/09/21 02:32:55;;;;;;;44.47;42.08;;;;;;;13.80;100.00;101185.88;4991154;28;20444;-71
2023/09/21 02:35:25;;;;;;;42.13;39.63;;;;;;;13.90;100.00;101192.41;4984745;28;20061;-71
2023/09/21 02:37:53;;;;;;;40.78;38.90;;;;;;;13.74;100.00;101182.25;4989635;28;20542;-71
2023/09/21 02:40:22;;;;;;;48.58;45.08;;;;;;;13.46;100.00;101180.78;4986768;28;20054;-71
2023/09/21 02:42:52;;;;;;;41.25;38.65;;;;;;;13.50;100.00;101183.84;4984740;28;20038;-71
2023/09/21 02:45:21;;;;;;;30.63;28.83;;;;;;;13.63;100.00;101185.59;4983859;28;20054;-71
2023/09/21 02:47:49;;;;;;;39.92;37.53;;;;;;;13.58;100.00;101175.56;4988417;28;20149;-71
2023/09/21 02:50:22;;;;;;;40.17;37.47;;;;;;;13.57;100.00;101184.59;4985924;28;20058;-72
2023/09/21 02:52:54;;;;;;;42.47;39.97;;;;;;;13.72;100.00;101178.97;4987330;28;20065;-71
2023/09/21 02:55:22;;;;;;;36.00;33.70;;;;;;;13.70;100.00;101183.69;4989980;28;20078;-71
2023/09/21 02:57:54;;;;;;;37.47;35.20;;;;;;;13.80;100.00;101173.38;4992046;28;20089;-72
2023/09/21 03:00:25;;;;;;;47.10;43.88;;;;;;;13.61;100.00;101174.31;4984485;28;20056;-71
2023/09/21 03:02:54;;;;;;;42.10;39.60;;;;;;;13.44;100.00;101174.00;4989717;28;20050;-71
2023/09/21 03:05:24;;;;;;;38.97;36.60;;;;;;;13.29;100.00;101177.78;4991024;28;20053;-71
2023/09/21 03:07:51;;;;;;;38.72;36.42;;;;;;;13.45;100.00;101175.63;4991207;28;20042;-75
2023/09/21 03:10:22;;;;;;;38.38;36.08;;;;;;;13.50;100.00;101175.81;4986767;28;20070;-75
2023/09/21 03:12:52;;;;;;;37.00;34.90;;;;;;;13.55;100.00;101175.97;4992523;28;20049;-75
2023/09/21 03:15:22;;;;;;;34.88;32.58;;;;;;;13.46;100.00;101175.44;4984836;28;20065;-75
2023/09/21 03:17:53;;;;;;;34.30;32.30;;;;;;;13.53;100.00;101172.72;4989639;28;20069;-75
2023/09/21 03:20:32;;;;;;;40.42;38.22;;;;;;;13.34;100.00;101165.63;4991318;28;20516;-75
2023/09/21 03:23:04;;;;;;;38.85;36.45;;;;;;;13.37;100.00;101167.88;4976823;28;20051;-74
2023/09/21 03:25:32;;;;;;;41.50;39.10;;;;;;;13.00;100.00;101178.28;4987684;28;20495;-75
2023/09/21 03:28:02;;;;;;;38.40;36.00;;;;;;;13.14;100.00;101179.88;4983262;28;20054;-75
2023/09/21 03:30:29;;;;;;;38.53;36.15;;;;;;;13.14;100.00;101187.03;4978323;28;20109;-75
2023/09/21 03:32:56;;;;;;;40.15;37.55;;;;;;;13.18;100.00;101181.06;4989276;28;20042;-75
2023/09/21 03:35:26;;;;;;;38.38;35.97;;;;;;;13.23;100.00;101175.09;4991090;28;20057;-75
2023/09/21 03:37:54;;;;;;;37.65;35.35;;;;;;;13.40;100.00;101178.13;4988336;28;20129;-74
2023/09/21 03:40:21;;;;;;;40.88;38.58;;;;;;;13.44;100.00;101179.34;4988611;28;20129;-75
2023/09/21 03:42:48;;;;;;;31.65;29.17;;;;;;;13.48;100.00;101183.22;4987933;28;20050;-75
2023/09/21 03:45:16;;;;;;;37.50;35.30;;;;;;;13.42;100.00;101179.56;4985847;28;20050;-75
2023/09/21 03:47:43;;;;;;;46.13;43.42;;;;;;;13.31;100.00;101174.06;4984076;28;20057;-74
2023/09/21 03:50:14;;;;;;;41.65;39.28;;;;;;;13.31;100.00;101177.53;4997323;28;20046;-75
2023/09/21 03:52:43;;;;;;;42.45;39.95;;;;;;;13.25;100.00;101173.91;4988505;28;20614;-75
2023/09/21 03:55:13;;;;;;;53.60;50.42;;;;;;;13.36;100.00;101172.41;4986829;28;20050;-75
2023/09/21 03:57:38;;;;;;;62.40;58.58;;;;;;;13.41;100.00;101172.59;4980340;28;20534;-75
2023/09/21 04:00:21;;;;;;;38.28;35.40;;;;;;;13.43;100.00;101172.34;4986706;28;20058;-75
2023/09/21 04:02:48;;;;;;;;;;;;;;;13.54;100.00;101174.34;4985677;28;20137;-75
2023/09/21 04:05:20;;;;;;;22.98;20.67;;;;;;;13.46;100.00;101175.44;4982937;28;19926;-75
2023/09/21 04:07:49;;;;;;;24.42;22.13;;;;;;;13.11;100.00;101174.13;4979521;28;20151;-74
2023/09/21 04:10:16;;;;;;;22.58;20.45;;;;;;;12.92;100.00;101182.00;4983203;28;20047;-75
2023/09/21 04:12:43;;;;;;;28.92;27.13;;;;;;;13.13;100.00;101172.06;4980616;28;20076;-75
2023/09/21 04:15:11;;;;;;;20.45;19.05;;;;;;;13.23;100.00;101180.44;4976801;28;20058;-74
2023/09/21 04:17:39;;;;;;;21.00;19.70;;;;;;;13.28;100.00;101176.16;4986327;28;20451;-74
2023/09/21 04:20:11;;;;;;;20.05;18.92;;;;;;;13.26;100.00;101180.88;4986805;28;20056;-75
2023/09/21 04:22:39;;;;;;;19.38;18.17;;;;;;;13.23;100.00;101183.94;4988284;28;20137;-75
2023/09/21 04:25:09;;;;;;;19.90;18.80;;;;;;;13.23;100.00;101189.25;4985216;28;20056;-71
2023/09/21 04:27:40;;;;;;;18.90;17.70;;;;;;;13.20;100.00;101188.88;4978787;28;20440;-71
2023/09/21 04:30:09;;;;;;;19.70;18.30;;;;;;;13.23;100.00;101191.94;4975165;28;20047;-71
2023/09/21 04:32:37;;;;;;;21.73;20.42;;;;;;;13.37;100.00;101184.69;4981939;28;20053;-74
2023/09/21 04:35:05;;;;;;;22.05;20.75;;;;;;;13.40;100.00;101188.78;4984103;28;20509;-71
2023/09/21 04:37:34;;;;;;;21.27;19.92;;;;;;;13.48;100.00;101185.88;4979046;28;20046;-71
2023/09/21 04:40:04;;;;;;;21.00;19.60;;;;;;;13.66;100.00;101185.16;4983774;28;20054;-74
2023/09/21 04:42:32;;;;;;;21.70;20.30;;;;;;;13.75;100.00;101190.03;4979684;28;20058;-70
2023/09/21 04:45:00;;;;;;;21.88;20.48;;;;;;;13.86;100.00;101185.88;4981432;28;20074;-74
2023/09/21 04:47:27;;;;;;;21.85;20.45;;;;;;;13.96;100.00;101191.53;4975170;28;20073;-70
2023/09/21 04:49:55;;;;;;;20.45;19.10;;;;;;;14.14;100.00;101188.13;4979766;28;20168;-75
2023/09/21 04:52:22;;;;;;;21.20;19.70;;;;;;;14.30;100.00;101194.75;4980876;28;20059;-75
2023/09/21 04:54:52;;;;;;;20.90;19.50;;;;;;;14.39;100.00;101196.13;4980924;28;20123;-75
2023/09/21 04:57:20;;;;;;;21.73;20.13;;;;;;;14.44;100.00;101184.78;4981918;28;20050;-74
2023/09/21 04:59:48;;;;;;;20.85;19.35;;;;;;;14.68;100.00;101193.03;4979163;28;20061;-74
2023/09/21 05:02:15;;;;;;;25.55;23.60;;;;;;;14.83;100.00;101196.97;4977727;28;20058;-74
2023/09/21 05:04:42;;;;;;;25.52;23.23;;;;;;;14.86;100.00;101193.84;4977416;28;20038;-75
2023/09/21 05:07:09;;;;;;;22.67;21.10;;;;;;;15.07;100.00;101192.56;4978375;28;20141;-75
2023/09/21 05:09:36;;;;;;;24.35;22.75;;;;;;;15.29;100.00;101190.25;4985024;28;20043;-74
2023/09/21 05:12:05;;;;;;;21.88;20.38;;;;;;;15.37;100.00;101189.13;4978397;28;20056;-75
2023/09/21 05:14:32;;;;;;;21.88;20.48;;;;;;;15.43;100.00;101185.53;4980265;28;20046;-74
2023/09/21 05:17:00;;;;;;;22.70;21.20;;;;;;;15.49;100.00;101183.78;4973699;28;20057;-74
2023/09/21 05:19:27;;;;;;;23.40;21.90;;;;;;;15.74;100.00;101187.19;4979909;28;20050;-75
2023/09/21 05:21:56;;;;;;;24.25;22.60;;;;;;;15.90;100.00;101183.03;4982671;28;20419;-75
2023/09/21 05:24:24;;;;;;;22.60;21.10;;;;;;;15.95;100.00;101183.16;4982800;28;20047;-75
2023/09/21 05:26:52;;;;;;;22.65;21.02;;;;;;;16.15;100.00;101188.19;4981846;28;20047;-74
2023/09/21 05:29:19;;;;;;;21.05;19.55;;;;;;;16.25;100.00;101176.91;4978284;28;20050;-75
2023/09/21 05:31:47;;;;;;;21.58;20.10;;;;;;;16.41;100.00;101183.44;4981486;28;20141;-75
2023/09/21 05:34:15;;;;;;;21.27;19.88;;;;;;;16.42;100.00;101182.38;4978614;28;20051;-74
2023/09/21 05:36:45;;;;;;;21.55;20.15;;;;;;;16.45;100.00;101187.28;4975769;28;20516;-74
2023/09/21 05:39:14;;;;;;;21.45;20.08;;;;;;;16.63;100.00;101186.34;4978723;28;20049;-75
2023/09/21 05:41:42;;;;;;;22.25;20.85;;;;;;;16.79;100.00;101187.50;4980729;28;20109;-75
2023/09/21 05:44:09;;;;;;;22.30;20.85;;;;;;;16.91;100.00;101189.16;4984355;28;20109;-74
2023/09/21 05:46:36;;;;;;;21.50;20.00;;;;;;;17.06;100.00;101193.19;4989159;28;20061;-75
2023/09/21 05:49:03;;;;;;;22.67;20.98;;;;;;;17.20;100.00;101188.38;4988668;28;20145;-75
2023/09/21 05:51:32;;;;;;;22.15;20.73;;;;;;;17.28;100.00;101193.38;4990003;28;20050;-74
2023/09/21 05:54:00;;;;;;;28.77;27.13;;;;;;;22.71;100.00;101178.00;4983161;28;20490;-74
2023/09/21 05:56:27;;;;;;;27.20;25.55;;;;;;;23.62;100.00;101178.63;4977230;28;20502;-75
2023/09/21 05:58:54;;;;;;;25.13;23.58;;;;;;;23.82;100.00;101172.28;4989139;28;20105;-75
2023/09/21 06:01:21;;;;;;;29.17;27.48;;;;;;;23.90;100.00;101179.78;4985617;28;20054;-75
2023/09/21 06:03:49;;;;;;;31.45;29.75;;;;;;;23.89;100.00;101167.34;4980616;28;20046;-75
2023/09/21 06:06:19;;;;;;;29.25;27.65;;;;;;;22.32;100.00;101184.84;4980936;28;20046;-76
2023/09/21 06:08:50;;;;;;;28.83;27.13;;;;;;;21.26;100.00;101186.34;4984299;28;20053;-75
2023/09/21 06:11:17;;;;;;;25.83;24.13;;;;;;;21.29;100.00;101185.81;4979073;28;20612;-75
2023/09/21 06:13:43;;;;;;;25.58;23.98;;;;;;;20.89;100.00;101181.09;4983633;28;20051;-75
2023/09/21 06:16:10;;;;;;;25.88;24.08;;;;;;;21.38;100.00;101181.53;4978210;28;20520;-75
2023/09/21 06:18:37;;;;;;;26.88;25.27;;;;;;;22.23;100.00;101180.25;4982387;28;20047;-77
2023/09/21 06:21:06;;;;;;;23.50;21.98;;;;;;;20.54;100.00;101185.22;4981909;28;20109;-77
2023/09/21 06:23:33;;;;;;;25.40;23.80;;;;;;;20.23;100.00;101181.47;4982358;28;20055;-72
2023/09/21 06:26:01;;;;;;;23.15;21.65;;;;;;;20.32;100.00;101180.72;4981808;28;20058;-72
2023/09/21 06:28:28;;;;;;;22.63;21.02;;;;;;;20.45;100.00;101176.75;4984655;28;20077;-72
2023/09/21 06:30:55;;;;;;;24.40;22.00;;;;;;;20.59;100.00;101175.25;4984232;28;20138;-72
2023/09/21 06:33:23;;;;;;;22.92;21.52;;;;;;;20.56;100.00;101169.59;4980793;28;20733;-72
2023/09/21 06:35:51;;;;;;;24.00;22.15;;;;;;;20.64;100.00;101171.78;4978472;28;20057;-72
2023/09/21 06:38:19;;;;;;;22.70;21.30;;;;;;;20.74;100.00;101162.94;4984353;28;20055;-72
2023/09/21 06:40:46;;;;;;;24.10;22.77;;;;;;;20.79;100.00;101168.38;4976557;28;20138;-72
2023/09/21 06:43:14;;;;;;;24.13;22.70;;;;;;;20.77;100.00;101165.09;4982187;28;20538;-72
2023/09/21 06:45:42;;;;;;;25.50;24.00;;;;;;;21.32;100.00;101169.06;4981479;28;20053;-77
2023/09/21 06:48:11;;;;;;;26.83;25.15;;;;;;;21.16;100.00;101162.81;4981530;28;20062;-72
2023/09/21 06:50:40;;;;;;;27.60;25.67;;;;;;;21.89;100.00;101170.78;4976763;28;20141;-77
2023/09/21 06:53:09;;;;;;;25.50;23.80;;;;;;;22.27;100.00;101165.09;4983360;28;20046;-72
2023/09/21 06:55:36;;;;;;;25.83;24.23;;;;;;;22.69;100.00;101153.88;4982095;28;20057;-72
2023/09/21 06:58:03;;;;;;;31.40;29.08;;;;;;;22.84;100.00;101155.72;4987171;28;20046;-73
2023/09/21 07:00:32;;;;;;;28.85;25.60;;;;;;;22.98;100.00;101164.09;4985070;28;20061;-72
2023/09/21 07:02:58;;;;;;;26.90;25.10;;;;;;;23.17;100.00;101162.38;4978638;28;20439;-72
2023/09/21 07:05:25;;;;;;;26.08;24.48;;;;;;;23.50;100.00;101149.16;4983555;28;20046;-73
2023/09/21 07:07:53;;;;;;;29.20;27.40;;;;;;;23.60;100.00;101154.53;4981276;28;20408;-72
2023/09/21 07:10:21;;;;;;;27.52;25.42;;;;;;;23.87;100.00;101154.03;4980948;28;20054;-72
2023/09/21 07:12:48;;;;;;;28.95;26.88;;;;;;;23.98;100.00;101152.06;4979824;28;20057;-72
2023/09/21 07:15:15;;;;;;;24.90;23.30;;;;;;;24.18;100.00;101151.88;4981400;28;20054;-72
2023/09/21 07:17:43;;;;;;;24.98;23.38;;;;;;;24.28;100.00;101145.53;4977064;28;20051;-73
2023/09/21 07:20:11;;;;;;;26.45;24.65;;;;;;;24.61;100.00;101156.59;4982168;28;20047;-73
2023/09/21 07:22:38;;;;;;;28.70;26.77;;;;;;;24.68;100.00;101151.63;4984660;28;20055;-73
2023/09/21 07:25:06;;;;;;;28.98;27.08;;;;;;;24.67;100.00;101147.31;4981635;28;20047;-72
2023/09/21 07:27:36;;;;;;;24.73;22.88;;;;;;;24.59;100.00;101151.44;4980630;28;20073;-72
2023/09/21 07:30:04;;;;;;;29.00;27.20;;;;;;;24.92;100.00;101157.03;4984635;28;20057;-72
2023/09/21 07:32:32;;;;;;;27.88;26.08;;;;;;;25.17;100.00;101153.19;4988251;28;20050;-72
2023/09/21 07:35:04;;;;;;;27.08;25.27;;;;;;;25.22;100.00;101152.31;4985483;28;20051;-72
2023/09/21 07:37:31;;;;;;;29.60;27.80;;;;;;;25.36;100.00;101151.28;4979441;28;20051;-72
2023/09/21 07:40:02;;;;;;;26.65;25.05;;;;;;;25.86;100.00;101150.78;4976052;28;20051;-72
2023/09/21 07:42:30;;;;;;;26.30;24.60;;;;;;;25.69;100.00;101154.06;4975651;28;20491;-72
2023/09/21 07:44:56;;;;;;;25.75;24.08;;;;;;;25.83;100.00;101153.31;4978136;28;20051;-72
2023/09/21 07:47:23;;;;;;;26.40;24.80;;;;;;;25.84;100.00;101155.75;4978368;28;20054;-72
2023/09/21 07:49:54;;;;;;;32.78;30.98;;;;;;;25.99;100.00;101152.75;4977197;28;20046;-72
2023/09/21 07:52:23;;;;;;;25.40;23.80;;;;;;;26.25;100.00;101144.13;4981250;28;20051;-72
2023/09/21 07:54:50;;;;;;;25.48;23.88;;;;;;;25.97;100.00;101140.56;4974187;28;20078;-72
2023/09/21 07:57:17;;;;;;;24.60;23.00;;;;;;;26.89;100.00;101142.28;4982546;28;20519;-73
2023/09/21 07:59:44;;;;;;;25.63;23.92;;;;;;;26.51;100.00;101139.03;4984332;28;20055;-72
2023/09/21 08:02:12;;;;;;;26.40;24.60;;;;;;;26.79;100.00;101139.00;4980113;28;20515;-73
2023/09/21 08:04:39;;;;;;;20.98;19.45;;;;;;;26.38;100.00;101134.34;4983035;28;20046;-72
2023/09/21 08:07:06;;;;;;;21.38;19.58;;;;;;;27.09;100.00;101135.59;4981064;28;20046;-72
2023/09/21 08:09:35;;;;;;;23.63;21.92;;;;;;;27.38;100.00;101128.97;4981398;28;20058;-72
2023/09/21 08:12:02;;;;;;;23.98;22.42;;;;;;;27.92;100.00;101123.56;4974972;28;20057;-73
2023/09/21 08:14:29;;;;;;;25.88;23.60;;;;;;;27.50;100.00;101133.88;4974772;28;20484;-72
2023/09/21 08:16:58;;;;;;;23.17;21.67;;;;;;;27.39;100.00;101130.59;4976390;28;20046;-72
2023/09/21 08:19:24;;;;;;;23.40;21.70;;;;;;;27.75;100.00;101121.53;4979324;28;20050;-72
2023/09/21 08:21:51;;;;;;;23.52;21.95;;;;;;;27.63;100.00;101125.63;4981159;28;20051;-72
2023/09/21 08:24:18;;;;;;;20.77;19.27;;;;;;;28.01;100.00;101114.28;4979176;28;20050;-72
2023/09/21 08:26:46;;;;;;;21.80;20.00;;;;;;;28.07;100.00;101115.78;4982750;28;20332;-72
2023/09/21 08:29:14;;;;;;;23.13;21.52;;;;;;;28.36;100.00;101105.47;4986171;28;20054;-72
2023/09/21 08:31:41;;;;;;;24.27;22.67;;;;;;;28.52;100.00;101106.66;4981903;28;20487;-73
2023/09/21 08:34:08;;;;;;;24.55;22.95;;;;;;;28.03;100.00;101112.06;4983282;28;20055;-73
2023/09/21 08:36:36;;;;;;;25.70;23.90;;;;;;;27.75;100.00;101113.34;4978903;28;20061;-77
2023/09/21 08:39:04;;;;;;;24.58;22.98;;;;;;;28.94;100.00;101101.56;4982153;28;20046;-77
2023/09/21 08:41:33;;;;;;;24.88;23.23;;;;;;;29.22;100.00;101100.16;4979305;28;20133;-77
2023/09/21 08:44:04;;;;;;;22.80;21.30;;;;;;;28.44;100.00;101101.97;4983500;28;20081;-77
2023/09/21 08:46:31;;;;;;;23.40;21.83;;;;;;;28.97;100.00;101096.25;4984258;28;20058;-76
2023/09/21 08:49:00;;;;;;;24.70;23.10;;;;;;;26.88;100.00;101099.81;4980262;28;20460;-73
2023/09/21 08:51:32;;;;;;;24.50;22.90;;;;;;;28.20;100.00;101089.50;4983114;28;20057;-72
2023/09/21 08:54:01;;;;;;;24.98;23.38;;;;;;;29.15;100.00;101088.09;4982663;28;20086;-72
2023/09/21 08:56:32;;;;;;;26.98;25.17;;;;;;;28.51;100.00;101086.72;4981472;28;20057;-72
2023/09/21 08:59:03;;;;;;;24.65;23.05;;;;;;;29.29;100.00;101077.81;4982462;28;20058;-73
2023/09/21 09:01:30;;;;;;;22.83;21.30;;;;;;;29.80;100.00;101070.59;4979986;28;20051;-72
2023/09/21 09:03:58;;;;;;;23.75;22.15;;;;;;;29.81;100.00;101076.91;4979320;28;20456;-72
2023/09/21 09:06:27;;;;;;;24.17;22.40;;;;;;;30.34;100.00;101076.34;4978573;28;20053;-73
2023/09/21 09:08:54;;;;;;;24.30;22.60;;;;;;;29.94;100.00;101069.59;4979739;28;20050;-72
2023/09/21 09:11:35;;;;;;;23.30;21.70;;;;;;;29.60;100.00;101069.38;4979009;28;20069;-73
2023/09/21 09:14:05;;;;;;;22.70;21.10;;;;;;;29.69;100.00;101072.09;4979397;28;20050;-73
2023/09/21 09:16:33;;;;;;;22.45;20.95;;;;;;;30.56;100.00;101077.19;4977050;28;20054;-73
2023/09/21 09:19:05;;;;;;;25.77;23.63;;;;;;;31.30;100.00;101069.38;4984193;28;20039;-73
2023/09/21 09:21:32;;;;;;;25.90;24.20;;;;;;;29.16;100.00;101065.88;4982215;28;20049;-73
2023/09/21 09:23:59;;;;;;;27.92;26.33;;;;;;;29.22;100.00;101059.13;4985515;28;20521;-73
2023/09/21 09:26:28;;;;;;;21.70;20.00;;;;;;;31.47;100.00;101063.75;4983375;28;20495;-70
2023/09/21 09:29:05;;;;;;;23.50;21.60;;;;;;;30.48;100.00;101054.19;4984408;28;20668;-71
2023/09/21 09:31:37;;;;;;;24.20;22.60;;;;;;;31.05;98.03;101058.31;4971692;28;20074;-72
2023/09/21 09:34:04;;;;;;;23.45;21.85;;;;;;;30.37;100.00;101052.97;4982652;28;20050;-72
2023/09/21 09:36:33;;;;;;;22.30;20.75;;;;;;;28.80;100.00;101052.50;4981805;28;20042;-71
2023/09/21 09:39:08;;;;;;;22.30;20.70;;;;;;;28.93;100.00;101056.25;4856356;28;10000845;-72
2023/09/21 09:41:35;;;;;;;24.17;22.50;;;;;;;27.50;100.00;101055.56;4979178;28;20279;-72
2023/09/21 09:44:09;;;;;;;26.52;24.83;;;;;;;27.57;100.00;101053.22;4980117;28;20523;-72
2023/09/21 09:46:41;;;;;;;24.30;22.70;;;;;;;27.94;100.00;101056.63;4976163;28;20046;-73
2023/09/21 09:49:09;;;;;;;23.67;22.10;;;;;;;29.65;100.00;101050.06;4976576;28;20058;-72
2023/09/21 09:51:40;;;;;;;24.60;23.00;;;;;;;28.82;100.00;101058.47;4977881;28;20050;-72
2023/09/21 09:54:09;;;;;;;25.23;23.52;;;;;;;29.29;100.00;101058.66;4980243;28;20050;-72
2023/09/21 09:56:41;;;;;;;26.20;24.58;;;;;;;29.28;100.00;101054.28;4977210;28;20054;-72
2023/09/21 09:59:11;;;;;;;27.85;26.05;;;;;;;29.70;100.00;101048.28;4975362;28;20054;-72
2023/09/21 10:01:41;;;;;;;25.92;24.17;;;;;;;29.56;100.00;101048.44;4976263;28;20448;-72
2023/09/21 10:04:09;;;;;;;25.65;23.95;;;;;;;29.42;100.00;101040.44;4972352;28;20551;-71
2023/09/21 10:06:36;;;;;;;26.92;25.33;;;;;;;29.37;100.00;101044.13;4983383;28;20093;-72
2023/09/21 10:09:10;;;;;;;27.67;26.08;;;;;;;29.27;100.00;101046.44;4976816;28;20447;-72
2023/09/21 10:11:39;;;;;;;26.92;25.13;;;;;;;29.96;100.00;101039.97;4977143;28;20043;-72
2023/09/21 10:14:11;;;;;;;27.00;25.30;;;;;;;27.71;100.00;101042.19;4974746;28;20062;-71
2023/09/21 10:16:39;;;;;;;28.10;26.40;;;;;;;28.21;100.00;101041.94;4979025;28;20046;-71
2023/09/21 10:19:16;;;;;;;28.02;26.35;;;;;;;29.06;100.00;101043.56;4983357;28;20054;-72
2023/09/21 10:21:43;;;;;;;28.88;27.08;;;;;;;29.56;100.00;101041.06;4980968;28;20105;-72
2023/09/21 10:24:18;;;;;;;30.25;28.45;;;;;;;29.92;100.00;101031.59;4979905;28;20054;-71
2023/09/21 10:26:50;;;;;;;30.60;28.55;;;;;;;29.25;100.00;101029.53;4983876;28;20439;-71
2023/09/21 10:29:20;;;;;;;29.33;27.52;;;;;;;30.14;100.00;101022.31;4980740;28;20085;-71
2023/09/21 10:31:55;;;;;;;31.10;29.20;;;;;;;29.30;100.00;101021.16;4982672;28;20475;-72
2023/09/21 10:34:26;;;;;;;27.60;26.00;;;;;;;28.97;100.00;101018.91;4988320;28;20141;-71
2023/09/21 10:37:00;;;;;;;22.17;20.77;;;;;;;29.81;100.00;101009.28;4980700;28;20058;-71
2023/09/21 10:39:28;;;;;;;25.10;23.50;;;;;;;29.77;100.00;101004.75;4982832;28;20495;-72
2023/09/21 10:41:57;;;;;;;27.67;26.00;;;;;;;29.22;100.00;101004.44;4988080;28;20046;-72
2023/09/21 10:44:59;;;;;;;26.90;25.30;;;;;;;28.81;100.00;101004.16;4984630;28;20051;-72
2023/09/21 10:47:31;;;;;;;;;;;;;;;28.77;100.00;100999.28;4984957;28;20128;-71
2023/09/21 10:50:00;;;;;;;25.27;23.67;;;;;;;29.24;100.00;101000.59;4983630;28;20426;-72
2023/09/21 10:52:29;;;;;;;27.58;25.77;;;;;;;29.76;100.00;100990.28;4982429;28;21011;-71
2023/09/21 10:54:56;;;;;;;23.60;22.05;;;;;;;29.64;100.00;100996.44;4983879;28;20055;-72
2023/09/21 10:57:25;;;;;;;22.70;21.17;;;;;;;29.84;100.00;101000.41;4987874;28;20442;-72
2023/09/21 10:59:53;;;;;;;24.23;22.52;;;;;;;30.57;100.00;100994.66;4994650;28;20051;-72
2023/09/21 11:02:20;;;;;;;27.73;25.73;;;;;;;29.53;100.00;100995.16;4980441;28;20409;-71
2023/09/21 11:04:50;;;;;;;26.20;24.60;;;;;;;31.61;100.00;100979.13;4986269;28;20126;-71
2023/09/21 11:07:18;;;;;;;25.70;24.00;;;;;;;29.59;100.00;100991.16;4981704;28;20054;-72
2023/09/21 11:09:46;;;;;;;26.88;25.17;;;;;;;29.14;100.00;100982.56;4980084;28;20058;-72